Ariadna — ZGBE5 — position and weather

sailwx.info

Track history (hours):
 
Tides and Currents Weather Stations Pressure Air Temp Water Temp Dewpoint Dewpoint Depression Visibility Wind Speed Wind Dir Waves Ship Positions

Ariadna

Last reported at 2015-Jul-01 17:33 UTC. Time now 2015-Jul-01 21:11 UTC.
Position N 39°29' E 002°28'.

Length 47 m; draft 3.1 m.

Type: Pleasure craft. MMSI: 319026100.

Date/timePositionNaut miles runAvg speedWind from/ knotsBaromVisibWave heightAir tempDewpointWater temp
2015-Jul-01 17:33N 39°29' E 002°28'0 0.0
2015-Jul-01 09:22N 39°29' E 002°28'0 0.0
2015-Jul-01 08:05N 39°29' E 002°28'0 0.0
2015-Jul-01 04:09N 39°29' E 002°28'0 0.0
2015-Jul-01 01:29N 39°29' E 002°28'0 0.0
2015-Jun-30 23:13N 39°29' E 002°28'0 0.0
2015-Jun-30 20:26N 39°29' E 002°28'0 0.3
2015-Jun-30 19:33N 39°29' E 002°28'4 3.6
2015-Jun-30 18:33N 39°30' E 002°33'0 0.0
2015-Jun-30 17:33N 39°30' E 002°33'0 0.0
2015-Jun-30 16:34N 39°30' E 002°33'1 1.4
2015-Jun-30 15:33N 39°32' E 002°34'0 0.0
2015-Jun-30 14:33N 39°32' E 002°34'0 0.0
2015-Jun-30 13:32N 39°32' E 002°34'0 0.0
2015-Jun-30 12:33N 39°32' E 002°34'1 1.3
2015-Jun-30 11:33N 39°30' E 002°33'0 0.0
2015-Jun-30 10:33N 39°30' E 002°33'0 0.0
2015-Jun-30 09:33N 39°30' E 002°33'0 0.0
2015-Jun-30 08:33N 39°30' E 002°33'4 4.0
2015-Jun-30 07:33N 39°27' E 002°31'3 0.1
2015-Jun-28 09:26N 39°29' E 002°28'0 0.0
2015-Jun-28 08:07N 39°29' E 002°29'2 3.8
2015-Jun-28 07:33N 39°29' E 002°26'1010.3
2015-Jun-28 06:34N 39°36' E 002°17'1312.6
2015-Jun-28 05:33N 39°46' E 002°28'1312.7
2015-Jun-28 04:33N 39°55' E 002°39'1312.8
2015-Jun-28 03:33N 40°04' E 002°51'1212.3
2015-Jun-28 02:33N 40°13' E 003°02'1312.6
2015-Jun-28 01:33N 40°23' E 003°13'10212.6
2015-Jun-27 17:29N 41°36' E 004°46'1312.7
2015-Jun-27 16:26N 41°46' E 004°58'1112.4
2015-Jun-27 15:33N 41°54' E 005°08'1312.5
2015-Jun-27 14:33N 42°03' E 005°19'1312.7
2015-Jun-27 13:33N 42°13' E 005°31'1312.7
2015-Jun-27 12:33N 42°22' E 005°43'1312.7
2015-Jun-27 11:33N 42°31' E 005°54'7913.2
2015-Jun-27 05:33N 43°29' E 007°08'1513.2
2015-Jun-27 04:27N 43°40' E 007°22'  
2015-Jun-21 19:05N 43°43' E 007°25'  
Track history (hours):
 
Tides and Currents Weather Stations Pressure Air Temp Water Temp Dewpoint Dewpoint Depression Visibility Wind Speed Wind Dir Waves Ship Positions

Ariadna

Last reported at 2015-Jul-01 17:33 UTC. Time now 2015-Jul-01 21:11 UTC.
Position N 39°29' E 002°28'.

Length 47 m; draft 3.1 m.

Type: Pleasure craft. MMSI: 319026100.

Date/timePositionNaut miles runAvg speedWind from/ knotsBaromVisibWave heightAir tempDewpointWater temp
2015-Jul-01 17:33N 39°29' E 002°28'0 0.0
2015-Jul-01 09:22N 39°29' E 002°28'0 0.0
2015-Jul-01 08:05N 39°29' E 002°28'0 0.0
2015-Jul-01 04:09N 39°29' E 002°28'0 0.0
2015-Jul-01 01:29N 39°29' E 002°28'0 0.0
2015-Jun-30 23:13N 39°29' E 002°28'0 0.0
2015-Jun-30 20:26N 39°29' E 002°28'0 0.3
2015-Jun-30 19:33N 39°29' E 002°28'4 3.6
2015-Jun-30 18:33N 39°30' E 002°33'0 0.0
2015-Jun-30 17:33N 39°30' E 002°33'0 0.0
2015-Jun-30 16:34N 39°30' E 002°33'1 1.4
2015-Jun-30 15:33N 39°32' E 002°34'0 0.0
2015-Jun-30 14:33N 39°32' E 002°34'0 0.0
2015-Jun-30 13:32N 39°32' E 002°34'0 0.0
2015-Jun-30 12:33N 39°32' E 002°34'1 1.3
2015-Jun-30 11:33N 39°30' E 002°33'0 0.0
2015-Jun-30 10:33N 39°30' E 002°33'0 0.0
2015-Jun-30 09:33N 39°30' E 002°33'0 0.0
2015-Jun-30 08:33N 39°30' E 002°33'4 4.0
2015-Jun-30 07:33N 39°27' E 002°31'3 0.1
2015-Jun-28 09:26N 39°29' E 002°28'0 0.0
2015-Jun-28 08:07N 39°29' E 002°29'2 3.8
2015-Jun-28 07:33N 39°29' E 002°26'1010.3
2015-Jun-28 06:34N 39°36' E 002°17'1312.6
2015-Jun-28 05:33N 39°46' E 002°28'1312.7
2015-Jun-28 04:33N 39°55' E 002°39'1312.8
2015-Jun-28 03:33N 40°04' E 002°51'1212.3
2015-Jun-28 02:33N 40°13' E 003°02'1312.6
2015-Jun-28 01:33N 40°23' E 003°13'10212.6
2015-Jun-27 17:29N 41°36' E 004°46'1312.7
2015-Jun-27 16:26N 41°46' E 004°58'1112.4
2015-Jun-27 15:33N 41°54' E 005°08'1312.5
2015-Jun-27 14:33N 42°03' E 005°19'1312.7
2015-Jun-27 13:33N 42°13' E 005°31'1312.7
2015-Jun-27 12:33N 42°22' E 005°43'1312.7
2015-Jun-27 11:33N 42°31' E 005°54'7913.2
2015-Jun-27 05:33N 43°29' E 007°08'1513.2
2015-Jun-27 04:27N 43°40' E 007°22'  
2015-Jun-21 19:05N 43°43' E 007°25'  

Dump ship's entire track history